Estación Meteorológica Peña el Pijo (Robertgarden) [ 11/12/18 21:42:00 CET ]

Fecha Hora Presion(HPa) Temp (°C) Humedad % Rocio (°C) Viento ( m/s) Direccion Lluvia 1Hora(mm) Lluvia 24H(mm) LLuvia Total(mm)
2018-Jul-23 01:01:38 1011.900 16.8 72 11.7         269.36
2018-Jul-23 02:01:58 1011.900 14.9 71 9.7         269.36
2018-Jul-23 03:02:08 1011.900 13.3 73 8.5         269.36
2018-Jul-23 04:02:04 1011.600 12.0 74 7.5         269.36
2018-Jul-23 05:02:08 1011.600 11.3 77 7.4         269.36
2018-Jul-23 06:01:36 1011.500 10.4 78 6.7         269.36
2018-Jul-23 07:02:01 1012.000 9.8 78 6.1         269.36
2018-Jul-23 08:01:37 1012.100 11.0 81 7.9         269.36
2018-Jul-23 09:01:58 1012.000 17.6 65 10.9         269.36
2018-Jul-23 10:01:50 1011.900 23.9 45 11.2         269.36
2018-Jul-23 11:01:50 1011.300 29.3 39 13.9         269.36
2018-Jul-23 12:01:46 1011.200 33.0 30 13.2         269.36
2018-Jul-23 13:01:54 1011.000 34.5 25 11.4         269.36
2018-Jul-23 14:01:49 1010.700 33.2 27 11.5         269.36
2018-Jul-23 15:01:47 1010.100 35.3 24 11.4         269.36
2018-Jul-23 16:01:51 1009.900 35.9 24 11.9         269.36
2018-Jul-23 17:01:37 1009.300 36.5 25 13.1         269.36
2018-Jul-23 18:01:54 1009.200 32.6 29 12.2         269.36
2018-Jul-23 19:01:43 1009.300 30.9 32 12.2         269.36
2018-Jul-23 20:01:48 1009.600 29.9 34 12.3         269.36
2018-Jul-23 21:01:59 1009.900 26.8 37 10.8         269.36
2018-Jul-23 22:01:44 1010.300 24.3 42 10.5         269.36
2018-Jul-23 23:01:32 1011.000 20.8 51 10.3         269.36

Temperatura Máxima:36°    Temperatura Mínima:
Presión Máxima:1012.100 Hpa    Presión Mínima:1009.200 Hpa


Volver